createdAt,value
2018-03-02T00:02:35.642Z,-0.69
2018-03-02T00:17:39.471Z,-0.67
2018-03-02T00:32:34.680Z,-0.72
2018-03-02T00:47:36.643Z,-0.80
2018-03-02T01:02:35.910Z,-0.87
2018-03-02T01:17:36.665Z,-0.98
2018-03-02T01:32:36.819Z,-1.05
2018-03-02T01:47:35.628Z,-1.06
2018-03-02T02:02:35.474Z,-1.13
2018-03-02T02:17:36.415Z,-1.14
2018-03-02T02:32:37.794Z,-1.16
2018-03-02T02:47:36.466Z,-1.27
2018-03-02T03:02:41.865Z,-1.32
2018-03-02T03:17:34.515Z,-1.45
2018-03-02T03:32:35.414Z,-1.46
2018-03-02T03:47:34.950Z,-1.53
2018-03-02T04:02:36.882Z,-1.50
2018-03-02T04:17:35.803Z,-1.53
2018-03-02T04:32:33.818Z,-1.61
2018-03-02T04:47:34.272Z,-1.54
2018-03-02T05:02:35.062Z,-1.41
2018-03-02T05:17:38.061Z,-1.34
2018-03-02T05:32:34.456Z,-1.30
2018-03-02T05:47:34.371Z,-1.18
2018-03-02T06:02:33.306Z,-1.02
2018-03-02T06:17:36.676Z,-0.82
2018-03-02T06:32:34.589Z,-0.48
2018-03-02T06:47:35.554Z,-0.09
2018-03-02T07:02:39.446Z,0.53
2018-03-02T07:32:36.876Z,1.19
2018-03-02T07:47:34.754Z,1.56
2018-03-02T08:02:34.638Z,1.70
2018-03-02T08:17:36.986Z,2.24
2018-03-02T09:17:36.635Z,3.98
2018-03-02T09:32:36.339Z,3.93
2018-03-02T09:47:35.261Z,5.22
2018-03-02T11:02:36.323Z,7.37
2018-03-02T11:17:34.693Z,7.61
2018-03-02T11:32:45.052Z,8.22
2018-03-02T11:47:34.721Z,8.51
2018-03-02T12:02:34.462Z,8.52
2018-03-02T12:17:36.808Z,8.64
2018-03-02T12:32:34.872Z,8.66
2018-03-02T12:47:34.811Z,8.61
2018-03-02T13:02:34.625Z,8.66
2018-03-02T13:17:37.978Z,8.72
2018-03-02T13:32:36.479Z,8.34
2018-03-02T14:02:48.720Z,7.07
2018-03-02T14:32:36.416Z,5.96
2018-03-02T15:47:45.888Z,4.90
2018-03-02T17:17:34.756Z,3.91
2018-03-02T17:32:34.782Z,3.84
2018-03-02T17:47:34.619Z,3.86
2018-03-02T18:02:34.725Z,3.83
2018-03-02T18:17:34.950Z,3.89
2018-03-02T18:32:37.904Z,4.05
2018-03-02T18:47:35.000Z,4.14
2018-03-02T19:17:34.214Z,4.30
2018-03-02T19:32:37.225Z,4.34
2018-03-02T19:47:34.406Z,4.23
2018-03-02T20:02:36.268Z,4.06
2018-03-02T20:17:35.583Z,4.06
2018-03-02T20:47:35.430Z,3.88
2018-03-02T21:02:37.501Z,3.74
2018-03-02T21:17:41.005Z,3.63
2018-03-02T21:32:35.782Z,3.57
2018-03-02T21:47:34.630Z,3.57
2018-03-02T22:02:34.700Z,3.62
2018-03-02T22:17:36.885Z,3.75
2018-03-02T22:32:34.931Z,3.71
2018-03-02T22:47:34.750Z,3.74
2018-03-02T23:02:36.763Z,3.63
2018-03-02T23:17:34.708Z,3.75
2018-03-02T23:32:37.069Z,3.76
2018-03-02T23:47:35.044Z,3.69
